Time;durP1;ratioP1;P1;durP2;ratioP2;P2;SDS_P1;SDS_P2;PMS_P1;PMS_P2;Temp;Humidity;BMP_temperature;BMP_pressure;BME280_temperature;BME280_humidity;BME280_pressure;Samples;Min_cycle;Max_cycle;Signal;HPM_P1;HPM_P2
2022/05/13 00:01:33;;;;;;;11.35;2.63;;;;;;;11.95;67.52;101653.19;4984664;28;20125;-73
2022/05/13 00:03:59;;;;;;;6.03;2.63;;;;;;;11.94;66.99;101643.38;4975623;28;20037;-72
2022/05/13 00:06:24;;;;;;;10.07;2.70;;;;;;;11.95;67.46;101653.19;4975602;28;20130;-72
2022/05/13 00:08:49;;;;;;;13.27;2.90;;;;;;;11.94;67.42;101646.09;4974207;28;20038;-73
2022/05/13 00:11:15;;;;;;;10.65;2.90;;;;;;;11.92;67.71;101643.56;4976660;28;20046;-73
2022/05/13 00:13:40;;;;;;;9.88;2.75;;;;;;;11.89;67.81;101646.69;4994519;28;20462;-73
2022/05/13 00:16:06;;;;;;;12.80;2.90;;;;;;;11.79;68.46;101649.88;4988521;28;20041;-71
2022/05/13 00:18:32;;;;;;;11.15;2.63;;;;;;;11.75;68.80;101648.63;4974555;28;20454;-71
2022/05/13 00:20:58;;;;;;;9.75;3.00;;;;;;;11.68;69.69;101642.38;4969247;28;20046;-74
2022/05/13 00:23:24;;;;;;;12.32;2.85;;;;;;;11.62;69.54;101643.25;4994547;28;20027;-72
2022/05/13 00:25:49;;;;;;;11.85;2.80;;;;;;;11.58;69.94;101637.41;4994245;28;20549;-74
2022/05/13 00:28:15;;;;;;;10.90;3.72;;;;;;;11.51;70.60;101642.84;4992231;28;20030;-73
2022/05/13 00:30:42;;;;;;;13.85;3.22;;;;;;;11.40;70.62;101632.66;4994134;28;20030;-72
2022/05/13 00:33:11;;;;;;;7.38;2.97;;;;;;;11.43;71.00;101637.66;4991043;28;20026;-73
2022/05/13 00:35:39;;;;;;;26.52;3.72;;;;;;;11.45;71.53;101643.69;5011299;28;20481;-74
2022/05/13 00:38:06;;;;;;;10.27;3.10;;;;;;;11.51;70.93;101642.00;4995019;28;20458;-74
2022/05/13 00:40:31;;;;;;;11.80;2.97;;;;;;;11.43;71.20;101637.66;4993902;28;20536;-72
2022/05/13 00:42:59;;;;;;;14.25;3.45;;;;;;;11.44;71.98;101636.59;4975325;28;20062;-74
2022/05/13 00:45:25;;;;;;;10.48;3.22;;;;;;;11.44;71.25;101636.59;4974844;28;20034;-74
2022/05/13 00:47:50;;;;;;;13.65;3.00;;;;;;;11.43;71.50;101643.06;4986283;28;20037;-73
2022/05/13 00:50:16;;;;;;;10.57;3.13;;;;;;;11.37;71.70;101645.78;4975687;28;20050;-73
2022/05/13 00:52:48;;;;;;;12.52;3.42;;;;;;;11.31;71.56;101633.94;4992667;28;20074;-72
2022/05/13 00:55:15;;;;;;;;;;;;;;;11.48;69.41;101637.84;4993898;28;20038;-72
2022/05/13 00:57:40;;;;;;;11.73;2.70;;;;;;;11.24;70.93;101636.63;4992971;28;19914;-73
2022/05/13 01:00:11;;;;;;;11.57;3.20;;;;;;;11.14;71.20;101642.50;4992961;28;20038;-73
2022/05/13 01:02:37;;;;;;;9.65;2.67;;;;;;;11.03;70.62;101634.97;4956240;28;20050;-73
2022/05/13 01:05:05;;;;;;;11.38;3.00;;;;;;;10.95;70.87;101633.31;4974145;28;20022;-73
2022/05/13 01:07:32;;;;;;;8.73;2.30;;;;;;;10.90;70.21;101637.69;4973650;28;20371;-73
2022/05/13 01:10:01;;;;;;;9.10;2.60;;;;;;;10.82;70.24;101639.56;4979817;28;20077;-72
2022/05/13 01:12:32;;;;;;;7.15;2.75;;;;;;;10.78;70.91;101632.91;4976527;28;20038;-73
2022/05/13 01:15:05;;;;;;;11.17;2.60;;;;;;;10.76;70.15;101631.44;4985490;28;20041;-74
2022/05/13 01:20:22;;;;;;;8.70;2.40;;;;;;;10.67;70.58;101636.19;4983697;28;20049;-72
2022/05/13 01:22:51;;;;;;;9.18;2.50;;;;;;;10.67;70.68;101629.97;4993501;28;20036;-74
2022/05/13 01:25:19;;;;;;;10.18;2.75;;;;;;;10.66;70.65;101628.28;4976345;28;20026;-74
2022/05/13 01:27:47;;;;;;;10.30;2.58;;;;;;;10.66;69.93;101623.72;4993056;28;20057;-73
2022/05/13 01:30:16;;;;;;;9.38;2.20;;;;;;;10.63;69.91;101626.84;4993648;28;20034;-72
2022/05/13 01:32:42;;;;;;;10.05;2.45;;;;;;;10.55;69.72;101627.88;4993362;28;20038;-72
2022/05/13 01:35:08;;;;;;;7.57;1.80;;;;;;;10.54;70.41;101625.38;4975202;28;20037;-73
2022/05/13 01:37:34;;;;;;;6.47;2.33;;;;;;;10.55;70.13;101635.16;4985465;28;20031;-73
2022/05/13 01:40:01;;;;;;;10.52;2.97;;;;;;;10.51;70.70;101637.44;4974055;28;20023;-73
2022/05/13 01:42:27;;;;;;;9.27;2.20;;;;;;;10.50;70.13;101629.53;4956906;28;20029;-73
2022/05/13 01:44:53;;;;;;;7.80;2.00;;;;;;;10.53;70.18;101637.25;4978211;28;20536;-72
2022/05/13 01:47:18;;;;;;;8.65;2.22;;;;;;;10.55;70.14;101632.44;4975694;28;20031;-72
2022/05/13 01:49:43;;;;;;;8.15;2.30;;;;;;;10.58;69.80;101643.72;4993275;28;20077;-73
2022/05/13 01:52:08;;;;;;;7.78;2.20;;;;;;;10.60;70.42;101635.38;4993848;28;20031;-72
2022/05/13 01:54:34;;;;;;;4.15;1.73;;;;;;;10.61;70.15;101639.72;4992762;28;20023;-74
2022/05/13 01:56:59;;;;;;;10.10;2.10;;;;;;;10.63;70.20;101641.22;4992745;28;20096;-73
2022/05/13 01:59:24;;;;;;;7.00;1.90;;;;;;;10.67;69.92;101647.03;4991306;28;20035;-74
2022/05/13 02:01:49;;;;;;;9.63;2.17;;;;;;;10.65;69.73;101638.28;4980001;28;20409;-73
2022/05/13 02:04:14;;;;;;;7.40;1.60;;;;;;;10.67;69.21;101638.09;4993419;28;20026;-72
2022/05/13 02:06:40;;;;;;;6.60;1.85;;;;;;;10.63;70.17;101635.78;4992590;28;20500;-73
2022/05/13 02:09:05;;;;;;;7.97;2.20;;;;;;;10.65;70.48;101632.88;4984751;28;20096;-75
2022/05/13 02:11:31;;;;;;;7.10;2.25;;;;;;;10.71;69.44;101650.19;4956089;28;20042;-72
2022/05/13 02:13:57;;;;;;;12.23;2.53;;;;;;;10.68;70.46;101635.16;4956528;28;20039;-74
2022/05/13 02:16:23;;;;;;;8.43;2.20;;;;;;;10.71;70.20;101629.34;4988015;28;20030;-74
2022/05/13 02:18:48;;;;;;;9.77;2.28;;;;;;;10.70;70.82;101637.69;4975461;28;20038;-72
2022/05/13 02:21:14;;;;;;;7.35;2.22;;;;;;;10.71;70.54;101631.22;4993353;28;20091;-74
2022/05/13 02:23:40;;;;;;;10.32;2.35;;;;;;;10.66;71.38;101628.28;4992179;28;20497;-72
2022/05/13 02:26:08;;;;;;;9.75;2.30;;;;;;;10.63;70.73;101630.38;4991776;28;20062;-73
2022/05/13 02:28:34;;;;;;;11.20;2.10;;;;;;;10.64;71.80;101625.78;4981421;28;20031;-72
2022/05/13 02:31:00;;;;;;;11.88;2.65;;;;;;;10.64;71.75;101632.06;4989323;28;20037;-72
2022/05/13 02:33:30;;;;;;;8.40;2.40;;;;;;;10.63;71.24;101630.38;4991646;28;20066;-73
2022/05/13 02:35:55;;;;;;;10.15;2.47;;;;;;;10.62;71.98;101627.88;4992194;28;20119;-78
2022/05/13 02:38:21;;;;;;;10.00;2.10;;;;;;;10.62;71.44;101623.28;4988647;28;20474;-72
2022/05/13 02:43:31;;;;;;;10.05;2.47;;;;;;;10.69;72.38;101628.72;4978288;28;20122;-72
2022/05/13 02:45:56;;;;;;;9.90;2.47;;;;;;;10.70;71.64;101627.66;4976414;28;20045;-72
2022/05/13 02:48:21;;;;;;;11.10;2.55;;;;;;;10.69;72.04;101628.72;4993354;28;20038;-72
2022/05/13 02:50:47;;;;;;;17.23;2.42;;;;;;;10.70;72.60;101632.25;4992898;28;20495;-73
2022/05/13 02:53:13;;;;;;;8.15;2.30;;;;;;;10.72;72.76;101628.31;4983580;28;20066;-72
2022/05/13 02:55:38;;;;;;;8.73;2.50;;;;;;;10.72;72.57;101617.47;4973198;28;20034;-74
2022/05/13 02:58:04;;;;;;;12.38;2.63;;;;;;;10.72;73.17;101620.19;4974712;28;20029;-72
2022/05/13 03:00:30;;;;;;;10.90;2.65;;;;;;;10.71;73.29;101623.94;4994409;28;20020;-72
2022/05/13 03:02:55;;;;;;;11.05;3.17;;;;;;;10.69;73.94;101622.47;5002141;28;20026;-71
2022/05/13 03:05:21;;;;;;;9.93;3.00;;;;;;;10.69;74.50;101627.88;5013128;28;20034;-74
2022/05/13 03:07:46;;;;;;;23.80;2.88;;;;;;;10.67;74.99;101628.09;5016190;28;20031;-71
2022/05/13 03:10:12;;;;;;;10.63;2.72;;;;;;;10.68;75.03;101628.94;4997696;28;20381;-73
2022/05/13 03:12:38;;;;;;;11.65;2.95;;;;;;;10.66;75.60;101626.44;4978678;28;20489;-73
2022/05/13 03:15:05;;;;;;;12.27;3.20;;;;;;;10.69;75.82;101626.03;4996056;28;20030;-73
2022/05/13 03:17:30;;;;;;;12.40;3.20;;;;;;;10.68;76.06;101627.06;4995982;28;20037;-74
2022/05/13 03:19:55;;;;;;;13.13;3.20;;;;;;;10.64;76.50;101626.66;4995512;28;20030;-73
2022/05/13 03:22:21;;;;;;;11.00;2.70;;;;;;;10.64;76.84;101620.38;4995360;28;20045;-74
2022/05/13 03:24:46;;;;;;;11.43;3.08;;;;;;;10.64;77.25;101621.22;4995459;28;20030;-74
2022/05/13 03:27:11;;;;;;;15.23;3.55;;;;;;;10.64;77.29;101617.66;4978382;28;20441;-74
2022/05/13 03:29:36;;;;;;;13.85;3.40;;;;;;;10.63;77.50;101613.31;4995621;28;20034;-74
2022/05/13 03:32:06;;;;;;;18.42;3.05;;;;;;;10.62;77.23;101615.16;4995516;28;20034;-73
2022/05/13 03:34:31;;;;;;;13.18;3.17;;;;;;;10.57;77.23;101596.03;4995778;28;20045;-72
2022/05/13 03:36:57;;;;;;;9.63;3.13;;;;;;;10.62;77.37;101607.06;4977567;28;20054;-73
2022/05/13 03:39:23;;;;;;;14.38;3.20;;;;;;;10.61;77.13;101602.69;4995408;28;20038;-73
2022/05/13 03:41:48;;;;;;;10.80;3.25;;;;;;;10.58;77.35;101615.78;4994375;28;20117;-74
2022/05/13 03:44:15;;;;;;;19.33;3.80;;;;;;;10.52;78.16;101611.19;4995179;28;20034;-74
2022/05/13 03:46:40;;;;;;;13.02;3.30;;;;;;;10.46;78.59;101619.13;4995318;28;20064;-74
2022/05/13 03:49:06;;;;;;;10.25;3.92;;;;;;;10.48;78.32;101618.91;4981258;28;20038;-73
2022/05/13 03:51:32;;;;;;;14.38;3.50;;;;;;;10.50;78.49;101618.72;4990030;28;20030;-74
2022/05/13 03:53:58;;;;;;;15.25;3.50;;;;;;;10.48;78.33;101609.94;4994822;28;20088;-73
2022/05/13 03:56:24;;;;;;;16.58;3.33;;;;;;;10.48;78.90;101610.78;4982817;28;20088;-73
2022/05/13 03:58:50;;;;;;;14.85;3.75;;;;;;;10.42;79.27;101608.91;4975383;28;20079;-72
2022/05/13 04:01:15;;;;;;;14.70;3.78;;;;;;;10.45;79.26;101620.16;4981596;28;20058;-73
2022/05/13 04:03:40;;;;;;;14.95;3.83;;;;;;;10.44;79.07;101615.75;4975643;28;20033;-72
2022/05/13 04:08:56;;;;;;;17.20;4.28;;;;;;;10.40;79.80;101619.09;4960534;28;20124;-73
2022/05/13 04:11:22;;;;;;;14.23;3.50;;;;;;;10.38;79.62;101619.28;4989404;28;20030;-74
2022/05/13 04:16:31;;;;;;;12.73;4.13;;;;;;;10.43;79.33;101614.13;4994854;28;20093;-73
2022/05/13 04:18:58;;;;;;;15.77;3.78;;;;;;;10.45;79.58;101628.25;4994821;28;20488;-72
2022/05/13 04:21:28;;;;;;;12.13;3.60;;;;;;;10.40;79.69;101619.94;4994549;28;20049;-74
2022/05/13 04:23:57;;;;;;;16.13;3.80;;;;;;;10.40;80.21;101614.53;4994415;28;20022;-74
2022/05/13 04:26:23;;;;;;;19.00;3.85;;;;;;;10.42;79.38;101617.84;4994843;28;20061;-74
2022/05/13 04:28:51;;;;;;;16.05;4.10;;;;;;;10.40;79.81;101619.94;4992693;28;20153;-72
2022/05/13 04:31:23;;;;;;;20.50;4.13;;;;;;;10.42;80.32;101623.25;4994454;28;20031;-73
2022/05/13 04:33:49;;;;;;;15.18;3.92;;;;;;;10.44;79.88;101623.88;4993174;28;20508;-72
2022/05/13 04:36:15;;;;;;;16.58;4.05;;;;;;;10.41;80.73;101627.00;4982929;28;20058;-74
2022/05/13 04:38:41;;;;;;;13.07;3.92;;;;;;;10.38;80.05;101616.59;4975011;28;20038;-73
2022/05/13 04:43:51;;;;;;;16.58;5.88;;;;;;;10.42;80.33;101639.50;4993993;28;20053;-73
2022/05/13 04:46:17;;;;;;;14.70;4.38;;;;;;;10.43;80.54;101643.88;4994435;28;20030;-73
2022/05/13 04:48:43;;;;;;;15.98;4.40;;;;;;;10.45;80.55;101651.78;4992215;28;20061;-73
2022/05/13 04:51:10;;;;;;;12.80;4.10;;;;;;;10.42;81.27;101646.78;4993828;28;20072;-74
2022/05/13 04:53:37;;;;;;;14.93;3.60;;;;;;;10.43;81.64;101652.00;4993948;28;20050;-73
2022/05/13 04:56:05;;;;;;;16.02;4.18;;;;;;;10.47;80.56;101652.41;4993803;28;20041;-75
2022/05/13 04:58:31;;;;;;;14.23;4.10;;;;;;;10.53;80.94;101653.47;4993866;28;20057;-74
2022/05/13 05:00:58;;;;;;;15.27;3.90;;;;;;;10.50;80.86;101657.41;4990133;28;20034;-73
2022/05/13 05:03:29;;;;;;;14.02;4.15;;;;;;;10.52;80.57;101649.09;4974606;28;20061;-74
2022/05/13 05:05:58;;;;;;;19.95;4.38;;;;;;;10.57;81.28;101660.97;4973114;28;20069;-72
2022/05/13 05:08:23;;;;;;;14.35;4.45;;;;;;;10.59;81.16;101661.59;4978978;28;20093;-74
2022/05/13 05:10:49;;;;;;;15.68;4.38;;;;;;;10.62;80.67;101665.78;4993303;28;20038;-73
2022/05/13 05:13:23;;;;;;;17.77;4.30;;;;;;;10.65;80.46;101676.19;4993852;28;20034;-75
2022/05/13 05:15:49;;;;;;;17.13;4.40;;;;;;;10.69;80.76;101669.34;4993657;28;20081;-74
2022/05/13 05:18:15;;;;;;;15.63;3.80;;;;;;;10.62;81.08;101665.78;4994252;28;20039;-72
2022/05/13 05:20:41;;;;;;;15.95;4.13;;;;;;;10.62;81.27;101673.91;4993760;28;20485;-74
2022/05/13 05:23:11;;;;;;;15.60;4.43;;;;;;;10.63;80.89;101681.81;4993232;28;20026;-72
2022/05/13 05:25:36;;;;;;;17.70;4.72;;;;;;;10.66;81.00;101686.00;4993808;28;20165;-74
2022/05/13 05:28:02;;;;;;;18.17;4.07;;;;;;;10.68;81.71;101686.59;4993302;28;20102;-74
2022/05/13 05:30:27;;;;;;;18.60;4.43;;;;;;;10.75;81.14;101692.88;5001077;28;20061;-74
2022/05/13 05:32:52;;;;;;;17.27;4.60;;;;;;;10.79;81.18;101698.69;5013912;28;20041;-78
2022/05/13 05:35:21;;;;;;;17.75;4.15;;;;;;;10.80;81.26;101695.78;5005643;28;20050;-77
2022/05/13 05:37:46;;;;;;;18.55;4.03;;;;;;;10.86;81.78;101704.97;4995046;28;20030;-78
2022/05/13 05:40:12;;;;;;;13.32;4.07;;;;;;;10.94;80.39;101703.94;4976548;28;20026;-75
2022/05/13 05:42:39;;;;;;;17.55;4.60;;;;;;;10.94;80.83;101712.06;4992745;28;20616;-78
2022/05/13 05:45:07;;;;;;;15.70;3.75;;;;;;;10.94;80.94;101703.94;4983623;28;20039;-78
2022/05/13 05:47:32;;;;;;;18.17;4.10;;;;;;;10.98;81.20;101713.31;4973828;28;20091;-78
2022/05/13 05:49:59;;;;;;;13.88;4.40;;;;;;;11.03;80.60;101720.81;4972650;28;20146;-76
2022/05/13 05:52:24;;;;;;;16.63;4.57;;;;;;;11.02;81.11;101719.16;4973856;28;20031;-77
2022/05/13 05:57:34;;;;;;;15.80;4.20;;;;;;;11.12;81.10;101727.69;4973904;28;20096;-78
2022/05/13 06:00:00;;;;;;;17.92;4.30;;;;;;;11.16;81.55;101724.38;4972614;28;20042;-77
2022/05/13 06:02:26;;;;;;;16.25;4.25;;;;;;;11.25;81.83;101735.03;4973644;28;20109;-76
2022/05/13 06:04:51;;;;;;;14.13;4.78;;;;;;;11.35;81.20;101733.56;4989879;28;20030;-78
2022/05/13 06:07:17;;;;;;;17.92;5.00;;;;;;;11.41;80.51;101733.75;4975099;28;20469;-77
2022/05/13 06:09:44;;;;;;;22.10;5.10;;;;;;;11.45;80.18;101729.59;4975229;28;20037;-77
2022/05/13 06:12:11;;;;;;;21.95;5.18;;;;;;;11.52;80.33;101739.38;4993536;28;20026;-74
2022/05/13 06:14:37;;;;;;;18.02;4.57;;;;;;;11.60;80.40;101732.09;4993460;28;20034;-76
2022/05/13 06:17:03;;;;;;;16.33;5.32;;;;;;;11.66;80.02;101737.50;4995691;28;20030;-76
2022/05/13 06:19:28;;;;;;;20.67;4.97;;;;;;;11.67;79.60;101743.72;5001047;28;20031;-76
2022/05/13 06:21:54;;;;;;;21.02;5.88;;;;;;;11.67;80.30;101750.00;4984525;28;20047;-76
2022/05/13 06:24:20;;;;;;;16.65;4.85;;;;;;;11.65;80.13;101741.22;4973536;28;20035;-76
2022/05/13 06:26:48;;;;;;;13.52;4.47;;;;;;;11.67;80.87;101741.03;4973901;28;20050;-76
2022/05/13 06:29:14;;;;;;;16.75;5.20;;;;;;;11.76;80.44;101752.50;4973759;28;20038;-76
2022/05/13 06:31:39;;;;;;;17.15;5.65;;;;;;;11.77;80.78;101744.13;4989678;28;20038;-77
2022/05/13 06:34:05;;;;;;;17.20;4.88;;;;;;;11.81;81.27;101761.66;4994565;28;20461;-77
2022/05/13 06:36:31;;;;;;;14.95;4.80;;;;;;;11.88;81.11;101754.38;4975204;28;20081;-77
2022/05/13 06:38:57;;;;;;;22.88;5.20;;;;;;;11.91;80.80;101752.25;4977255;28;20470;-76
2022/05/13 06:41:24;;;;;;;15.77;5.13;;;;;;;12.01;81.16;101758.94;4976720;28;20045;-77
2022/05/13 06:43:50;;;;;;;21.60;5.38;;;;;;;12.10;80.04;101754.13;4992431;28;20398;-77
2022/05/13 06:46:15;;;;;;;17.95;5.20;;;;;;;12.16;80.18;101763.31;4976997;28;20026;-77
2022/05/13 06:48:40;;;;;;;19.75;6.22;;;;;;;12.22;79.97;101763.25;4977108;28;20033;-76
2022/05/13 06:51:06;;;;;;;16.67;5.65;;;;;;;12.30;79.85;101764.09;4974391;28;20086;-76
2022/05/13 06:53:31;;;;;;;17.30;5.72;;;;;;;12.33;79.99;101764.47;4977138;28;20034;-77
2022/05/13 06:55:57;;;;;;;15.48;5.22;;;;;;;12.44;79.24;101768.44;4976820;28;20027;-77
2022/05/13 06:58:22;;;;;;;16.75;5.45;;;;;;;12.51;79.33;101766.50;4975716;28;20478;-76
2022/05/13 07:00:47;;;;;;;20.75;5.88;;;;;;;12.56;79.33;101774.00;4974013;28;20052;-76
2022/05/13 07:03:15;;;;;;;20.92;5.68;;;;;;;12.60;79.24;101777.94;4957317;28;20059;-76
2022/05/13 07:05:41;;;;;;;21.25;6.05;;;;;;;12.63;78.60;101784.84;4972485;28;20382;-77
2022/05/13 07:08:07;;;;;;;18.88;6.03;;;;;;;12.64;78.55;101770.22;4957144;28;20062;-75
2022/05/13 07:10:32;;;;;;;16.58;5.82;;;;;;;12.70;79.39;101758.50;4963503;28;20065;-75
2022/05/13 07:12:57;;;;;;;21.60;6.13;;;;;;;12.77;78.36;101768.28;4976477;28;20023;-75
2022/05/13 07:15:23;;;;;;;18.95;5.65;;;;;;;12.84;78.18;101770.94;4976356;28;20034;-75
2022/05/13 07:17:48;;;;;;;17.13;6.10;;;;;;;12.91;77.31;101774.47;4991333;28;20038;-75
2022/05/13 07:20:15;;;;;;;17.75;5.65;;;;;;;12.86;77.21;101768.84;4976076;28;20117;-75
2022/05/13 07:22:40;;;;;;;18.92;5.72;;;;;;;12.99;77.87;101773.38;4976826;28;20034;-75
2022/05/13 07:25:07;;;;;;;21.88;6.15;;;;;;;13.04;77.21;101770.81;4975584;28;20386;-75
2022/05/13 07:27:32;;;;;;;20.75;6.25;;;;;;;13.06;76.87;101771.44;4976883;28;20035;-75
2022/05/13 07:29:57;;;;;;;21.08;5.80;;;;;;;13.08;76.21;101776.66;5015934;28;20023;-76
2022/05/13 07:32:23;;;;;;;18.80;5.85;;;;;;;13.13;76.06;101779.53;4977184;28;20528;-75
2022/05/13 07:34:48;;;;;;;19.63;5.85;;;;;;;13.18;76.23;101787.03;4976359;28;20038;-75
2022/05/13 07:37:14;;;;;;;16.90;5.95;;;;;;;13.23;74.57;101769.03;4993438;28;20414;-75
2022/05/13 07:42:23;;;;;;;14.20;5.85;;;;;;;13.38;73.49;101781.50;4995434;28;20045;-77
2022/05/13 07:44:48;;;;;;;16.80;5.90;;;;;;;13.41;73.71;101786.50;4994692;28;20034;-77
2022/05/13 07:47:16;;;;;;;20.88;5.63;;;;;;;13.43;73.60;101779.78;4977872;28;20137;-78
2022/05/13 07:49:45;;;;;;;18.88;5.40;;;;;;;13.48;74.13;101784.53;4978237;28;20556;-78
2022/05/13 07:52:10;;;;;;;20.58;5.60;;;;;;;13.62;73.65;101790.72;4985922;28;20035;-77
2022/05/13 07:54:36;;;;;;;15.18;5.05;;;;;;;13.71;72.91;101792.09;4976934;28;20100;-77
2022/05/13 07:57:02;;;;;;;13.73;5.18;;;;;;;13.78;72.52;101792.03;4974652;28;20046;-77
2022/05/13 07:59:28;;;;;;;14.85;4.80;;;;;;;13.85;72.33;101794.72;4985802;28;20034;-77
2022/05/13 08:01:54;;;;;;;16.40;5.13;;;;;;;13.92;72.16;101788.16;4985289;28;20047;-75
2022/05/13 08:04:20;;;;;;;16.52;4.88;;;;;;;13.96;71.40;101794.78;4978808;28;20046;-75
2022/05/13 08:06:45;;;;;;;14.27;5.05;;;;;;;13.92;69.36;101809.91;4978939;28;20031;-75
2022/05/13 08:09:11;;;;;;;15.25;4.80;;;;;;;13.86;70.36;101804.50;4985491;28;20027;-75
2022/05/13 08:11:37;;;;;;;13.30;4.72;;;;;;;13.89;70.86;101810.34;4959126;28;20113;-75
2022/05/13 08:14:03;;;;;;;16.45;5.00;;;;;;;13.93;69.79;101811.56;4958300;28;20446;-75
2022/05/13 08:16:29;;;;;;;12.02;4.97;;;;;;;13.93;70.16;101803.41;4975426;28;20026;-75
2022/05/13 08:18:58;;;;;;;14.57;5.18;;;;;;;13.93;69.83;101795.22;4964624;28;20037;-74
2022/05/13 08:21:24;;;;;;;15.60;4.60;;;;;;;14.06;70.94;101810.59;4994302;28;20034;-75
2022/05/13 08:23:50;;;;;;;13.20;3.80;;;;;;;14.05;68.55;101805.38;4993813;28;20030;-75
2022/05/13 08:26:16;;;;;;;13.38;3.75;;;;;;;14.04;66.52;101809.16;4994690;28;20432;-75
2022/05/13 08:28:42;;;;;;;14.43;4.00;;;;;;;14.02;67.28;101823.00;4994550;28;20036;-75
2022/05/13 08:31:08;;;;;;;13.40;4.53;;;;;;;14.09;68.15;101820.22;4994456;28;20491;-74
2022/05/13 08:33:33;;;;;;;12.55;3.80;;;;;;;14.22;69.97;101814.66;4993217;28;20035;-75
2022/05/13 08:36:01;;;;;;;12.30;4.15;;;;;;;14.21;67.10;101812.97;4994186;28;20470;-74
2022/05/13 08:38:29;;;;;;;15.73;4.10;;;;;;;14.25;65.89;101819.63;4990818;28;20053;-75
2022/05/13 08:41:10;;;;;;;11.27;3.45;;;;;;;14.36;66.73;101807.97;4975046;28;20042;-75
2022/05/13 08:43:38;;;;;;;12.40;3.95;;;;;;;14.46;66.79;101812.91;4983616;28;20121;-74
2022/05/13 08:46:26;;;;;;;15.05;3.90;;;;;;;14.58;65.36;101809.41;4994332;28;20671;-75
2022/05/13 08:48:57;;;;;;;15.50;3.97;;;;;;;14.58;64.03;101806.69;4994464;28;20484;-74
2022/05/13 08:51:44;;;;;;;19.20;3.88;;;;;;;14.67;65.39;101822.53;4994054;28;20038;-75
2022/05/13 08:54:18;;;;;;;11.95;3.35;;;;;;;14.68;63.06;101826.09;4980256;28;20090;-75
2022/05/13 08:56:49;;;;;;;10.45;3.55;;;;;;;14.65;63.77;101819.19;4956767;28;20031;-75
2022/05/13 08:59:22;;;;;;;9.33;3.30;;;;;;;14.58;62.63;101831.19;4974734;28;20034;-74
2022/05/13 09:01:53;;;;;;;12.65;3.30;;;;;;;14.58;63.36;101834.75;4977546;28;20047;-75
2022/05/13 09:04:35;;;;;;;11.55;4.13;;;;;;;14.68;63.59;101824.19;4974802;28;20055;-75
2022/05/13 09:07:04;;;;;;;10.90;3.70;;;;;;;14.83;61.96;101815.63;4974620;28;20039;-74
2022/05/13 09:09:31;;;;;;;11.85;3.13;;;;;;;14.83;60.92;101820.25;4974859;28;20093;-75
2022/05/13 09:12:10;;;;;;;14.07;3.72;;;;;;;14.81;62.00;101816.91;4957442;28;20042;-75
2022/05/13 09:14:44;;;;;;;11.27;3.38;;;;;;;14.80;62.62;101813.34;4992400;28;20084;-76
2022/05/13 09:17:34;;;;;;;9.73;3.05;;;;;;;14.91;60.97;101817.19;4993603;28;20038;-80
2022/05/13 09:20:01;;;;;;;6.25;2.92;;;;;;;14.88;59.83;101820.38;4993724;28;20026;-78
2022/05/13 09:22:35;;;;;;;15.57;3.10;;;;;;;15.05;59.56;101821.41;4993860;28;20109;-75
2022/05/13 09:25:01;;;;;;;12.18;2.90;;;;;;;15.06;60.43;101825.78;4990690;28;20058;-75
2022/05/13 09:27:26;;;;;;;8.55;2.78;;;;;;;15.13;59.20;101822.16;4986304;28;20391;-75
2022/05/13 09:29:52;;;;;;;14.07;3.33;;;;;;;15.18;58.98;101822.28;4987463;28;20060;-74
2022/05/13 09:32:29;;;;;;;9.75;2.80;;;;;;;15.24;58.35;101815.88;4983551;28;20043;-74
2022/05/13 09:35:06;;;;;;;11.25;2.90;;;;;;;15.32;58.97;101829.19;4985237;28;20050;-74
2022/05/13 09:37:39;;;;;;;10.60;2.80;;;;;;;15.33;57.52;101830.84;4993832;28;20066;-75
2022/05/13 09:40:21;;;;;;;10.45;2.60;;;;;;;15.20;57.46;101836.50;4977479;28;20053;-75
2022/05/13 09:42:50;;;;;;;11.43;2.80;;;;;;;15.29;57.23;101839.72;4988928;28;20108;-74
2022/05/13 09:45:18;;;;;;;7.82;2.40;;;;;;;15.42;57.39;101834.06;4992975;28;20034;-75
2022/05/13 09:47:46;;;;;;;9.50;2.75;;;;;;;15.50;56.67;101835.63;4983578;28;20113;-76
2022/05/13 09:50:22;;;;;;;9.32;2.60;;;;;;;15.56;57.40;101831.97;4976163;28;20042;-79
2022/05/13 09:52:48;;;;;;;11.70;3.05;;;;;;;15.61;57.20;101837.56;4993467;28;20034;-75
2022/05/13 09:55:41;;;;;;;9.10;2.60;;;;;;;15.56;55.59;101840.16;4991437;28;20035;-73
2022/05/13 09:58:20;;;;;;;10.82;2.92;;;;;;;15.49;56.04;101837.53;4975542;28;20034;-77
2022/05/13 10:00:50;;;;;;;13.30;2.75;;;;;;;15.44;56.13;101842.03;4990892;28;20030;-76
2022/05/13 10:03:20;;;;;;;12.80;2.63;;;;;;;15.48;55.56;101837.78;4973043;28;20122;-75
2022/05/13 10:06:08;;;;;;;7.55;2.30;;;;;;;15.47;56.09;101830.66;4972666;28;20066;-77
2022/05/13 10:08:52;;;;;;;8.50;2.47;;;;;;;15.48;54.56;101838.59;4987804;28;20129;-78
2022/05/13 10:14:30;;;;;;;8.88;2.20;;;;;;;15.52;54.53;101837.06;4997220;28;20406;-77
2022/05/13 10:17:02;;;;;;;12.02;2.30;;;;;;;15.50;54.37;101838.38;4997226;28;20105;-78
2022/05/13 10:19:40;;;;;;;14.13;2.70;;;;;;;15.49;55.65;101836.69;4997285;28;20033;-80
2022/05/13 10:22:28;;;;;;;10.80;2.63;;;;;;;15.53;55.92;101843.34;4979454;28;20038;-79
2022/05/13 10:25:03;;;;;;;9.98;2.58;;;;;;;15.41;54.62;101837.84;4997624;28;20454;-76
2022/05/13 10:27:40;;;;;;;10.68;2.67;;;;;;;15.48;56.22;101845.97;4985185;28;20051;-80
2022/05/13 10:30:20;;;;;;;8.38;2.42;;;;;;;15.64;55.48;101834.38;4978026;28;20030;-77
2022/05/13 10:33:01;;;;;;;10.15;2.85;;;;;;;15.91;54.60;101839.38;4985630;28;20042;-75
2022/05/13 10:35:32;;;;;;;7.30;2.47;;;;;;;15.89;55.26;101845.09;4997707;28;20038;-77
2022/05/13 10:38:02;;;;;;;8.98;2.53;;;;;;;15.76;53.94;101837.94;4998003;28;20034;-76
2022/05/13 10:40:34;;;;;;;11.95;2.60;;;;;;;15.67;53.00;101839.34;4997674;28;20030;-75
2022/05/13 10:43:04;;;;;;;7.07;2.40;;;;;;;15.65;53.54;101836.00;4997316;28;20084;-75
2022/05/13 10:45:31;;;;;;;10.35;2.50;;;;;;;15.93;54.16;101829.91;4988785;28;20485;-76
2022/05/13 10:48:02;;;;;;;6.90;2.25;;;;;;;16.19;54.82;101846.06;4976959;28;20027;-74
2022/05/13 10:50:49;;;;;;;12.80;2.70;;;;;;;16.29;52.77;101843.56;4983723;28;20042;-74
2022/05/13 10:53:46;;;;;;;6.82;2.35;;;;;;;16.10;53.57;101843.66;4996468;28;20037;-78
2022/05/13 10:56:20;;;;;;;7.53;2.40;;;;;;;16.13;53.34;101836.91;4995045;28;20022;-75
2022/05/13 10:59:01;;;;;;;8.23;2.50;;;;;;;16.24;54.42;101827.03;4996427;28;20033;-73
2022/05/13 11:01:57;;;;;;;13.15;2.50;;;;;;;16.48;52.96;101844.22;4990779;28;20152;-75
2022/05/13 11:04:28;;;;;;;12.18;2.50;;;;;;;16.46;52.71;101844.47;4995693;28;20041;-75
2022/05/13 11:07:03;;;;;;;12.95;2.75;;;;;;;16.50;52.99;101838.53;4996452;28;20066;-75
2022/05/13 11:09:45;;;;;;;8.80;2.20;;;;;;;16.57;52.76;101847.44;4995938;28;20042;-75
2022/05/13 11:12:27;;;;;;;9.20;2.70;;;;;;;16.72;52.56;101836.81;4996046;28;20023;-75
2022/05/13 11:15:17;;;;;;;8.00;2.45;;;;;;;17.02;52.67;101841.25;5188949;23;20300;-80
2022/05/13 11:17:50;;;;;;;10.43;2.10;;;;;;;16.96;48.25;101842.22;5063394;23;20058;-78
2022/05/13 11:21:07;;;;;;;11.75;2.50;;;;;;;16.89;49.74;101841.53;4995208;28;20035;-79
2022/05/13 11:25:54;;;;;;;6.82;2.25;;;;;;;16.66;50.92;101845.97;4930343;29;20024;-80
2022/05/13 11:26:44;;;;;;;11.35;2.55;;;;;;;16.59;51.96;101854.31;4935863;29;20414;-76
2022/05/13 11:29:42;;;;;;;11.13;2.80;;;;;;;16.60;52.26;101860.59;4978334;28;20423;-77
2022/05/13 11:32:27;;;;;;;13.70;2.60;;;;;;;16.52;51.64;101855.53;4976218;28;20047;-76
2022/05/13 11:35:24;;;;;;;7.88;2.58;;;;;;;16.46;50.97;101847.19;4994221;28;20062;-77
2022/05/13 11:37:54;;;;;;;6.88;2.28;;;;;;;16.57;51.59;101859.16;4974337;28;20117;-77
2022/05/13 11:40:35;;;;;;;9.63;2.40;;;;;;;16.72;51.67;101842.28;4976281;28;20102;-75
2022/05/13 11:43:25;;;;;;;10.30;2.63;;;;;;;17.03;51.17;101842.94;4976152;28;20038;-78
2022/05/13 11:46:15;;;;;;;10.13;2.55;;;;;;;17.20;49.97;101842.16;4960425;28;20117;-77
2022/05/13 11:48:44;;;;;;;12.95;2.42;;;;;;;17.19;50.76;101849.50;4955772;28;20027;-78
2022/05/13 11:51:10;;;;;;;11.68;2.60;;;;;;;17.19;49.09;101841.28;4961898;28;20054;-78